createdAt,value
2023-01-19T00:00:56.758Z,0
2023-01-19T00:01:56.743Z,0
2023-01-19T00:02:57.074Z,0
2023-01-19T00:03:56.764Z,0
2023-01-19T00:04:56.540Z,0
2023-01-19T00:05:57.149Z,0
2023-01-19T00:06:56.807Z,0
2023-01-19T00:07:56.515Z,0
2023-01-19T00:08:56.537Z,0
2023-01-19T00:09:56.808Z,0
2023-01-19T00:10:56.573Z,0
2023-01-19T00:11:56.826Z,0
2023-01-19T00:12:56.846Z,0
2023-01-19T00:13:57.011Z,0
2023-01-19T00:14:56.910Z,0
2023-01-19T00:15:57.276Z,0
2023-01-19T00:16:57.114Z,0
2023-01-19T00:17:56.672Z,0
2023-01-19T00:18:56.953Z,0
2023-01-19T00:19:56.703Z,0
2023-01-19T00:20:56.977Z,0
2023-01-19T00:21:56.709Z,0
2023-01-19T00:22:56.710Z,0
2023-01-19T00:23:57.033Z,0
2023-01-19T00:24:57.014Z,0
2023-01-19T00:25:57.039Z,0
2023-01-19T00:26:57.055Z,0
2023-01-19T00:28:00.578Z,0
2023-01-19T00:28:56.793Z,0
2023-01-19T00:29:57.077Z,0
2023-01-19T00:30:57.085Z,0
2023-01-19T00:31:56.923Z,0
2023-01-19T00:32:57.047Z,0
2023-01-19T00:33:56.894Z,0
2023-01-19T00:34:57.153Z,0
2023-01-19T00:35:56.870Z,0
2023-01-19T00:36:57.329Z,0
2023-01-19T00:37:56.637Z,0
2023-01-19T00:38:56.981Z,0
2023-01-19T00:39:57.209Z,0
2023-01-19T00:40:57.205Z,0
2023-01-19T00:41:56.965Z,0
2023-01-19T00:42:56.748Z,0
2023-01-19T00:43:56.972Z,0
2023-01-19T00:44:57.278Z,0
2023-01-19T00:45:57.089Z,0
2023-01-19T00:46:56.782Z,0
2023-01-19T00:47:56.840Z,0
2023-01-19T00:48:57.066Z,0
2023-01-19T00:49:57.369Z,0
2023-01-19T00:50:57.384Z,0
2023-01-19T00:51:56.833Z,0
2023-01-19T00:52:57.866Z,0
2023-01-19T00:53:57.363Z,0
2023-01-19T00:54:57.497Z,0
2023-01-19T00:55:57.393Z,0
2023-01-19T00:56:57.211Z,0
2023-01-19T00:57:57.623Z,0
2023-01-19T00:58:57.174Z,0
2023-01-19T00:59:57.480Z,0
2023-01-19T01:00:58.018Z,0
2023-01-19T01:01:58.678Z,0
2023-01-19T01:02:57.457Z,0
2023-01-19T01:03:57.377Z,0
2023-01-19T01:04:57.381Z,0
2023-01-19T01:05:57.279Z,0
2023-01-19T01:06:57.545Z,0
2023-01-19T01:07:57.546Z,0
2023-01-19T01:08:57.318Z,0
2023-01-19T01:09:57.312Z,0
2023-01-19T01:10:57.328Z,0
2023-01-19T01:11:58.137Z,0
2023-01-19T01:13:29.306Z,0
2023-01-19T01:13:58.895Z,0
2023-01-19T01:14:57.623Z,0
2023-01-19T01:15:57.651Z,0
2023-01-19T01:16:57.586Z,0
2023-01-19T01:17:57.163Z,0
2023-01-19T01:18:57.685Z,0
2023-01-19T01:19:57.717Z,0
2023-01-19T01:21:00.218Z,0
2023-01-19T01:21:57.521Z,0
2023-01-19T01:22:57.279Z,0
2023-01-19T01:23:57.966Z,0
2023-01-19T01:24:57.769Z,0
2023-01-19T01:25:57.788Z,0
2023-01-19T01:26:57.548Z,0
2023-01-19T01:27:58.206Z,0
2023-01-19T01:28:57.281Z,0
2023-01-19T01:29:57.556Z,0
2023-01-19T01:30:57.809Z,0
2023-01-19T01:31:58.048Z,0
2023-01-19T01:32:58.135Z,0
2023-01-19T01:33:57.879Z,0
2023-01-19T01:34:57.612Z,0
2023-01-19T01:35:57.907Z,0
2023-01-19T01:36:57.926Z,0
2023-01-19T01:37:57.954Z,0
2023-01-19T01:38:57.919Z,0
2023-01-19T01:39:57.695Z,0
2023-01-19T01:40:58.034Z,0
2023-01-19T01:42:02.193Z,0
2023-01-19T01:42:58.147Z,0
2023-01-19T01:43:58.755Z,0
2023-01-19T01:44:58.057Z,0
2023-01-19T01:45:58.224Z,0
2023-01-19T01:46:57.537Z,0
2023-01-19T01:47:57.798Z,0
2023-01-19T01:48:58.032Z,0
2023-01-19T01:49:57.833Z,0
2023-01-19T01:50:58.090Z,0
2023-01-19T01:51:58.134Z,0
2023-01-19T01:53:15.064Z,0
2023-01-19T01:53:57.847Z,0
2023-01-19T01:54:57.623Z,0
2023-01-19T01:55:58.142Z,0
2023-01-19T01:56:58.214Z,0
2023-01-19T01:57:58.178Z,0
2023-01-19T01:58:58.177Z,0
2023-01-19T01:59:58.203Z,0
2023-01-19T02:00:58.274Z,0
2023-01-19T02:01:58.889Z,0
2023-01-19T02:02:58.912Z,0
2023-01-19T02:03:58.241Z,0
2023-01-19T02:04:58.294Z,0
2023-01-19T02:05:57.784Z,0
2023-01-19T02:06:57.755Z,0
2023-01-19T02:07:58.049Z,0
2023-01-19T02:08:58.100Z,0
2023-01-19T02:09:58.335Z,0
2023-01-19T02:10:58.087Z,0
2023-01-19T02:11:58.084Z,0
2023-01-19T02:12:58.736Z,0
2023-01-19T02:13:58.113Z,0
2023-01-19T02:14:58.377Z,0
2023-01-19T02:15:58.421Z,0
2023-01-19T02:16:58.455Z,0
2023-01-19T02:17:58.165Z,0
2023-01-19T02:18:58.435Z,0
2023-01-19T02:19:58.463Z,0
2023-01-19T02:20:58.181Z,0
2023-01-19T02:21:58.460Z,0
2023-01-19T02:22:58.812Z,0
2023-01-19T02:23:58.277Z,0
2023-01-19T02:24:58.556Z,0
2023-01-19T02:25:58.267Z,0
2023-01-19T02:26:58.535Z,0
2023-01-19T02:27:58.995Z,0
2023-01-19T02:28:58.621Z,0
2023-01-19T02:29:58.555Z,0
2023-01-19T02:30:58.951Z,0
2023-01-19T02:31:58.610Z,0
2023-01-19T02:32:58.950Z,0
2023-01-19T02:33:58.617Z,0
2023-01-19T02:34:58.628Z,0
2023-01-19T02:35:58.642Z,0
2023-01-19T02:36:58.711Z,0
2023-01-19T02:37:58.672Z,0
2023-01-19T02:38:58.426Z,0
2023-01-19T02:39:58.004Z,0
2023-01-19T02:40:58.497Z,0
2023-01-19T02:41:58.488Z,0
2023-01-19T02:42:58.982Z,0
2023-01-19T02:43:58.760Z,0
2023-01-19T02:44:58.530Z,0
2023-01-19T02:45:58.921Z,0
2023-01-19T02:46:58.772Z,0
2023-01-19T02:47:58.553Z,0
2023-01-19T02:48:58.808Z,0
2023-01-19T02:49:58.562Z,0
2023-01-19T02:50:58.937Z,0
2023-01-19T02:51:58.932Z,0
2023-01-19T02:52:59.007Z,0
2023-01-19T02:53:58.619Z,0
2023-01-19T02:54:58.641Z,0
2023-01-19T02:55:58.945Z,0
2023-01-19T02:56:59.029Z,0
2023-01-19T02:57:58.945Z,0
2023-01-19T02:58:58.400Z,0
2023-01-19T02:59:58.943Z,0
2023-01-19T03:00:59.204Z,0
2023-01-19T03:01:59.277Z,0
2023-01-19T03:02:59.455Z,0
2023-01-19T03:03:59.064Z,0
2023-01-19T03:04:59.042Z,0
2023-01-19T03:05:58.759Z,0
2023-01-19T03:06:58.802Z,0
2023-01-19T03:07:58.803Z,0
2023-01-19T03:08:59.053Z,0
2023-01-19T03:09:58.838Z,0
2023-01-19T03:10:58.824Z,0
2023-01-19T03:11:58.870Z,0
2023-01-19T03:12:59.483Z,0
2023-01-19T03:14:01.618Z,0
2023-01-19T03:14:59.237Z,0
2023-01-19T03:15:59.272Z,0
2023-01-19T03:16:59.397Z,0
2023-01-19T03:17:59.169Z,0
2023-01-19T03:18:59.173Z,0
2023-01-19T03:19:59.236Z,0
2023-01-19T03:20:59.258Z,0
2023-01-19T03:21:59.294Z,0
2023-01-19T03:22:59.588Z,0
2023-01-19T03:23:58.992Z,0
2023-01-19T03:24:59.259Z,0
2023-01-19T03:25:59.017Z,0
2023-01-19T03:26:59.049Z,0
2023-01-19T03:27:59.562Z,0
2023-01-19T03:28:59.360Z,0
2023-01-19T03:29:59.067Z,0
2023-01-19T03:30:59.247Z,0
2023-01-19T03:31:59.373Z,0
2023-01-19T03:32:59.959Z,0
2023-01-19T03:33:59.108Z,0
2023-01-19T03:34:59.111Z,0
2023-01-19T03:35:59.398Z,0
2023-01-19T03:36:58.884Z,0
2023-01-19T03:37:59.421Z,0
2023-01-19T03:38:59.432Z,0
2023-01-19T03:39:59.182Z,0
2023-01-19T03:40:59.458Z,0
2023-01-19T03:41:59.476Z,0
2023-01-19T03:42:59.845Z,0
2023-01-19T03:43:59.341Z,0
2023-01-19T03:44:59.555Z,0
2023-01-19T03:45:59.169Z,0
2023-01-19T03:46:59.302Z,0
2023-01-19T03:47:59.559Z,0
2023-01-19T03:48:59.766Z,0
2023-01-19T03:49:59.050Z,0
2023-01-19T03:50:59.328Z,0
2023-01-19T03:51:59.404Z,0
2023-01-19T03:52:59.719Z,0
2023-01-19T03:53:59.416Z,0
2023-01-19T03:54:59.622Z,0
2023-01-19T03:55:59.120Z,0
2023-01-19T03:56:59.704Z,0
2023-01-19T03:57:59.683Z,0
2023-01-19T03:59:01.851Z,0
2023-01-19T03:59:59.429Z,0
2023-01-19T04:01:00.085Z,0
2023-01-19T04:02:00.155Z,0
2023-01-19T04:02:59.921Z,0
2023-01-19T04:03:59.861Z,0
2023-01-19T04:04:59.847Z,0
2023-01-19T04:05:59.237Z,0
2023-01-19T04:06:59.882Z,0
2023-01-19T04:07:59.683Z,0
2023-01-19T04:08:59.858Z,0
2023-01-19T04:09:59.812Z,0
2023-01-19T04:10:59.829Z,0
2023-01-19T04:11:59.596Z,0
2023-01-19T04:12:59.922Z,0
2023-01-19T04:13:59.686Z,0
2023-01-19T04:14:59.654Z,0
2023-01-19T04:16:00.206Z,0
2023-01-19T04:16:59.987Z,0
2023-01-19T04:17:59.918Z,0
2023-01-19T04:18:59.509Z,0
2023-01-19T04:19:59.945Z,0
2023-01-19T04:20:59.739Z,0
2023-01-19T04:21:59.737Z,0
2023-01-19T04:23:00.249Z,0
2023-01-19T04:23:59.746Z,0
2023-01-19T04:25:00.019Z,0
2023-01-19T04:25:59.487Z,0
2023-01-19T04:26:59.790Z,0
2023-01-19T04:28:00.395Z,0
2023-01-19T04:28:59.824Z,0
2023-01-19T04:30:00.167Z,0
2023-01-19T04:31:00.565Z,0
2023-01-19T04:32:00.134Z,0
2023-01-19T04:33:00.932Z,0
2023-01-19T04:34:00.176Z,0
2023-01-19T04:35:00.149Z,0
2023-01-19T04:36:01.815Z,0
2023-01-19T04:36:59.937Z,0
2023-01-19T04:37:59.908Z,0
2023-01-19T04:38:59.934Z,0
2023-01-19T04:39:59.989Z,0
2023-01-19T04:41:00.247Z,0
2023-01-19T04:41:59.981Z,0
2023-01-19T04:43:00.612Z,0
2023-01-19T04:44:00.400Z,0
2023-01-19T04:44:59.980Z,0
2023-01-19T04:45:59.761Z,0
2023-01-19T04:47:00.298Z,0
2023-01-19T04:47:59.788Z,0
2023-01-19T04:49:00.586Z,0
2023-01-19T04:50:00.319Z,0
2023-01-19T04:51:00.122Z,0
2023-01-19T04:51:59.863Z,0
2023-01-19T04:53:01.392Z,0
2023-01-19T04:54:00.624Z,0
2023-01-19T04:55:00.127Z,0
2023-01-19T04:56:00.414Z,0
2023-01-19T04:57:00.184Z,0
2023-01-19T04:58:00.172Z,0
2023-01-19T04:59:00.178Z,0
2023-01-19T05:00:00.229Z,0
2023-01-19T05:01:00.776Z,0
2023-01-19T05:02:00.607Z,0
2023-01-19T05:03:01.342Z,0
2023-01-19T05:04:00.521Z,0
2023-01-19T05:05:00.574Z,0
2023-01-19T05:06:00.261Z,0
2023-01-19T05:07:00.290Z,0
2023-01-19T05:08:00.570Z,0
2023-01-19T05:09:00.337Z,0
2023-01-19T05:10:00.579Z,0
2023-01-19T05:11:00.303Z,0
2023-01-19T05:12:00.364Z,0
2023-01-19T05:13:01.412Z,0
2023-01-19T05:14:00.637Z,0
2023-01-19T05:15:00.412Z,0
2023-01-19T05:16:00.813Z,0
2023-01-19T05:17:00.669Z,0
2023-01-19T05:18:00.427Z,0
2023-01-19T05:19:00.824Z,0
2023-01-19T05:20:00.704Z,0
2023-01-19T05:21:00.769Z,0
2023-01-19T05:22:00.205Z,0
2023-01-19T05:23:01.824Z,0
2023-01-19T05:24:00.778Z,0
2023-01-19T05:25:00.550Z,0
2023-01-19T05:26:00.768Z,0
2023-01-19T05:27:00.296Z,0
2023-01-19T05:28:01.216Z,0
2023-01-19T05:29:00.576Z,0
2023-01-19T05:30:00.602Z,0
2023-01-19T05:31:01.190Z,0
2023-01-19T05:32:01.212Z,0
2023-01-19T05:33:01.893Z,0
2023-01-19T05:34:00.927Z,0
2023-01-19T05:35:00.934Z,0
2023-01-19T05:36:01.055Z,0
2023-01-19T05:37:00.975Z,0
2023-01-19T05:38:00.954Z,0
2023-01-19T05:39:00.952Z,0
2023-01-19T05:40:00.720Z,0
2023-01-19T05:41:00.762Z,0
2023-01-19T05:42:00.713Z,0
2023-01-19T05:43:02.097Z,0
2023-01-19T05:44:01.023Z,0
2023-01-19T05:45:01.014Z,0
2023-01-19T05:46:01.073Z,0
2023-01-19T05:47:01.342Z,0
2023-01-19T05:48:01.065Z,0
2023-01-19T05:49:01.067Z,0
2023-01-19T05:50:00.555Z,0
2023-01-19T05:51:01.122Z,0
2023-01-19T05:52:01.097Z,0
2023-01-19T05:53:02.207Z,0
2023-01-19T05:54:01.137Z,0
2023-01-19T05:55:01.360Z,0
2023-01-19T05:56:01.159Z,0
2023-01-19T05:57:00.960Z,0
2023-01-19T05:58:01.182Z,0
2023-01-19T05:59:00.952Z,0
2023-01-19T06:00:00.963Z,0
2023-01-19T06:01:01.454Z,0
2023-01-19T06:02:01.135Z,0
2023-01-19T06:03:02.267Z,0
2023-01-19T06:04:01.251Z,0
2023-01-19T06:05:01.022Z,0
2023-01-19T06:06:00.840Z,0
2023-01-19T06:07:01.343Z,0
2023-01-19T06:08:01.316Z,0
2023-01-19T06:09:01.424Z,0
2023-01-19T06:10:01.118Z,0
2023-01-19T06:11:01.358Z,0
2023-01-19T06:12:01.401Z,0
2023-01-19T06:13:02.368Z,0
2023-01-19T06:14:01.138Z,0
2023-01-19T06:15:00.869Z,0
2023-01-19T06:16:01.209Z,0
2023-01-19T06:17:01.169Z,0
2023-01-19T06:18:01.216Z,0
2023-01-19T06:19:01.199Z,0
2023-01-19T06:20:01.506Z,0
2023-01-19T06:21:01.088Z,0
2023-01-19T06:22:01.479Z,0
2023-01-19T06:23:02.449Z,0
2023-01-19T06:24:01.542Z,0
2023-01-19T06:25:01.593Z,0
2023-01-19T06:26:01.402Z,0
2023-01-19T06:27:01.025Z,0
2023-01-19T06:28:02.025Z,0
2023-01-19T06:29:01.616Z,0
2023-01-19T06:30:01.418Z,0
2023-01-19T06:31:01.629Z,0
2023-01-19T06:32:01.852Z,0
2023-01-19T06:33:01.954Z,0
2023-01-19T06:34:01.381Z,0
2023-01-19T06:35:01.708Z,0
2023-01-19T06:36:01.436Z,0
2023-01-19T06:37:01.405Z,0
2023-01-19T06:38:01.420Z,0
2023-01-19T06:39:01.475Z,0
2023-01-19T06:40:01.735Z,0
2023-01-19T06:41:01.775Z,0
2023-01-19T06:42:01.745Z,0
2023-01-19T06:43:02.577Z,0
2023-01-19T06:44:01.782Z,0
2023-01-19T06:45:01.805Z,0
2023-01-19T06:46:01.794Z,0
2023-01-19T06:47:23.115Z,0
2023-01-19T06:48:01.278Z,0
2023-01-19T06:49:01.584Z,0
2023-01-19T06:50:01.631Z,0
2023-01-19T06:51:04.366Z,0
2023-01-19T06:52:01.858Z,0
2023-01-19T06:53:02.966Z,0
2023-01-19T06:54:01.648Z,0
2023-01-19T06:55:03.954Z,0
2023-01-19T06:56:02.878Z,0
2023-01-19T06:57:03.557Z,0
2023-01-19T06:58:02.053Z,0
2023-01-19T06:59:01.975Z,0
2023-01-19T07:00:01.731Z,0
2023-01-19T07:01:02.452Z,0
2023-01-19T07:02:28.932Z,0
2023-01-19T07:03:03.064Z,0
2023-01-19T07:04:02.032Z,0
2023-01-19T07:05:02.013Z,0
2023-01-19T07:06:02.063Z,0
2023-01-19T07:07:02.080Z,0
2023-01-19T07:08:02.079Z,0
2023-01-19T07:09:01.866Z,0
2023-01-19T07:10:02.104Z,0
2023-01-19T07:11:37.614Z,0
2023-01-19T07:12:02.517Z,0
2023-01-19T07:13:03.445Z,0
2023-01-19T07:14:01.963Z,0
2023-01-19T07:15:02.166Z,0
2023-01-19T07:16:01.639Z,0
2023-01-19T07:17:02.455Z,0
2023-01-19T07:18:02.185Z,4
2023-01-19T07:19:01.959Z,4
2023-01-19T07:20:01.988Z,0
2023-01-19T07:21:02.012Z,0
2023-01-19T07:22:02.279Z,0
2023-01-19T07:23:03.324Z,0
2023-01-19T07:24:02.301Z,0
2023-01-19T07:25:02.039Z,0
2023-01-19T07:26:02.319Z,0
2023-01-19T07:27:02.329Z,0
2023-01-19T07:28:02.716Z,0
2023-01-19T07:29:02.462Z,0
2023-01-19T07:30:02.092Z,4
2023-01-19T07:31:02.677Z,4
2023-01-19T07:32:02.109Z,4
2023-01-19T07:33:03.492Z,4
2023-01-19T07:34:02.385Z,4
2023-01-19T07:35:02.177Z,4
2023-01-19T07:36:02.424Z,0
2023-01-19T07:37:02.531Z,0
2023-01-19T07:38:02.428Z,4
2023-01-19T07:39:02.487Z,4
2023-01-19T07:40:02.466Z,4
2023-01-19T07:41:02.552Z,4
2023-01-19T07:42:02.453Z,4
2023-01-19T07:43:03.540Z,4
2023-01-19T07:44:02.276Z,4
2023-01-19T07:45:02.317Z,4
2023-01-19T07:46:02.766Z,4
2023-01-19T07:47:02.306Z,4
2023-01-19T07:48:02.614Z,4
2023-01-19T07:49:02.635Z,4
2023-01-19T07:50:02.362Z,4
2023-01-19T07:51:02.612Z,4
2023-01-19T07:52:02.619Z,4
2023-01-19T07:53:03.449Z,4
2023-01-19T07:54:02.634Z,8
2023-01-19T07:55:02.672Z,4
2023-01-19T07:56:02.197Z,8
2023-01-19T07:57:02.692Z,8
2023-01-19T07:58:02.704Z,8
2023-01-19T07:59:02.200Z,12
2023-01-19T08:00:02.730Z,8
2023-01-19T08:01:03.623Z,8
2023-01-19T08:02:02.981Z,12
2023-01-19T08:03:03.665Z,12
2023-01-19T08:04:02.527Z,12
2023-01-19T08:05:02.925Z,12
2023-01-19T08:06:03.046Z,12
2023-01-19T08:07:02.933Z,12
2023-01-19T08:08:02.616Z,12
2023-01-19T08:09:02.886Z,8
2023-01-19T08:10:02.973Z,8
2023-01-19T08:11:02.605Z,12
2023-01-19T08:12:02.644Z,12
2023-01-19T08:13:03.642Z,12
2023-01-19T08:14:02.954Z,12
2023-01-19T08:15:02.444Z,12
2023-01-19T08:16:03.020Z,12
2023-01-19T08:17:03.010Z,12
2023-01-19T08:18:02.706Z,12
2023-01-19T08:19:02.718Z,12
2023-01-19T08:20:02.464Z,12
2023-01-19T08:21:03.073Z,12
2023-01-19T08:22:03.060Z,12
2023-01-19T08:23:04.534Z,12
2023-01-19T08:24:03.035Z,16
2023-01-19T08:25:02.919Z,12
2023-01-19T08:26:03.002Z,16
2023-01-19T08:27:03.010Z,16
2023-01-19T08:28:03.068Z,12
2023-01-19T08:29:02.936Z,16
2023-01-19T08:30:03.115Z,16
2023-01-19T08:31:24.568Z,12
2023-01-19T08:32:03.695Z,12
2023-01-19T08:33:04.582Z,12
2023-01-19T08:34:02.953Z,12
2023-01-19T08:35:03.155Z,12
2023-01-19T08:36:03.035Z,16
2023-01-19T08:37:03.010Z,16
2023-01-19T08:38:03.212Z,16
2023-01-19T08:39:02.982Z,16
2023-01-19T08:40:03.220Z,16
2023-01-19T08:41:03.224Z,16
2023-01-19T08:42:03.024Z,12
2023-01-19T08:43:04.401Z,12
2023-01-19T08:44:03.276Z,12
2023-01-19T08:45:05.518Z,12
2023-01-19T08:46:03.312Z,12
2023-01-19T08:47:03.435Z,12
2023-01-19T08:48:03.173Z,12
2023-01-19T08:49:03.404Z,12
2023-01-19T08:50:03.367Z,16
2023-01-19T08:51:03.354Z,16
2023-01-19T08:52:03.372Z,16
2023-01-19T08:53:04.420Z,20
2023-01-19T08:54:03.138Z,20
2023-01-19T08:55:03.429Z,20
2023-01-19T08:56:03.024Z,20
2023-01-19T08:57:03.447Z,16
2023-01-19T08:58:03.531Z,20
2023-01-19T08:59:17.832Z,20
2023-01-19T09:00:03.313Z,20
2023-01-19T09:01:05.576Z,20
2023-01-19T09:02:03.863Z,24
2023-01-19T09:03:04.493Z,24
2023-01-19T09:04:03.528Z,24
2023-01-19T09:05:03.612Z,24
2023-01-19T09:06:03.292Z,24
2023-01-19T09:07:03.580Z,28
2023-01-19T09:08:04.398Z,32
2023-01-19T09:09:03.625Z,32
2023-01-19T09:10:03.710Z,32
2023-01-19T09:11:03.611Z,36
2023-01-19T09:12:03.372Z,36
2023-01-19T09:13:03.658Z,32
2023-01-19T09:14:03.688Z,36
2023-01-19T09:15:03.727Z,36
2023-01-19T09:16:03.898Z,36
2023-01-19T09:17:03.177Z,40
2023-01-19T09:18:04.764Z,40
2023-01-19T09:19:03.760Z,40
2023-01-19T09:20:03.732Z,28
2023-01-19T09:21:03.801Z,28
2023-01-19T09:22:03.493Z,28
2023-01-19T09:23:03.552Z,28
2023-01-19T09:24:03.576Z,24
2023-01-19T09:25:03.467Z,24
2023-01-19T09:26:03.555Z,24
2023-01-19T09:27:03.067Z,24
2023-01-19T09:28:05.221Z,20
2023-01-19T09:29:03.854Z,24
2023-01-19T09:30:03.906Z,24
2023-01-19T09:31:04.201Z,28
2023-01-19T09:32:04.060Z,28
2023-01-19T09:33:06.699Z,28
2023-01-19T09:34:03.694Z,28
2023-01-19T09:35:04.038Z,36
2023-01-19T09:36:03.993Z,36
2023-01-19T09:37:04.108Z,48
2023-01-19T09:38:05.019Z,52
2023-01-19T09:39:04.003Z,52
2023-01-19T09:40:04.039Z,52
2023-01-19T09:41:04.181Z,60
2023-01-19T09:42:04.015Z,56
2023-01-19T09:43:04.028Z,60
2023-01-19T09:44:03.795Z,56
2023-01-19T09:45:04.164Z,56
2023-01-19T09:46:03.900Z,56
2023-01-19T09:47:04.074Z,52
2023-01-19T09:48:04.566Z,52
2023-01-19T09:49:03.362Z,52
2023-01-19T09:50:04.125Z,56
2023-01-19T09:51:04.152Z,60
2023-01-19T09:52:04.178Z,72
2023-01-19T09:53:05.195Z,80
2023-01-19T09:54:04.143Z,84
2023-01-19T09:55:03.952Z,100
2023-01-19T09:56:03.924Z,96
2023-01-19T09:57:04.250Z,96
2023-01-19T09:58:05.366Z,88
2023-01-19T09:59:04.290Z,80
2023-01-19T10:00:04.065Z,72
2023-01-19T10:01:04.458Z,64
2023-01-19T10:02:04.328Z,56
2023-01-19T10:03:05.365Z,52
2023-01-19T10:04:04.304Z,44
2023-01-19T10:05:04.343Z,40
2023-01-19T10:06:04.074Z,40
2023-01-19T10:07:04.384Z,40
2023-01-19T10:08:05.013Z,32
2023-01-19T10:09:04.418Z,36
2023-01-19T10:10:04.116Z,32
2023-01-19T10:11:04.373Z,36
2023-01-19T10:12:03.617Z,36
2023-01-19T10:13:05.507Z,32
2023-01-19T10:14:04.419Z,36
2023-01-19T10:15:04.432Z,36
2023-01-19T10:16:04.748Z,36
2023-01-19T10:17:04.306Z,44
2023-01-19T10:18:05.426Z,40
2023-01-19T10:19:03.993Z,40
2023-01-19T10:20:04.607Z,32
2023-01-19T10:21:07.919Z,28
2023-01-19T10:22:04.533Z,28
2023-01-19T10:23:05.839Z,28
2023-01-19T10:24:05.818Z,32
2023-01-19T10:25:04.767Z,32
2023-01-19T10:26:04.573Z,32
2023-01-19T10:27:04.401Z,36
2023-01-19T10:28:04.986Z,36
2023-01-19T10:29:04.783Z,36
2023-01-19T10:30:04.696Z,36
2023-01-19T10:31:05.615Z,40
2023-01-19T10:32:04.921Z,40
2023-01-19T10:33:05.829Z,48
2023-01-19T10:34:04.445Z,44
2023-01-19T10:35:04.509Z,44
2023-01-19T10:36:04.754Z,44
2023-01-19T10:37:04.799Z,52
2023-01-19T10:38:04.549Z,52
2023-01-19T10:39:05.028Z,52
2023-01-19T10:40:04.538Z,48
2023-01-19T10:41:05.071Z,52
2023-01-19T10:42:04.766Z,56
2023-01-19T10:43:05.653Z,56
2023-01-19T10:44:04.922Z,52
2023-01-19T10:45:04.781Z,52
2023-01-19T10:46:05.263Z,56
2023-01-19T10:47:04.605Z,56
2023-01-19T10:48:04.647Z,52
2023-01-19T10:49:04.697Z,48
2023-01-19T10:50:04.421Z,44
2023-01-19T10:51:04.734Z,36
2023-01-19T10:52:04.803Z,32
2023-01-19T10:53:06.366Z,28
2023-01-19T10:54:04.841Z,36
2023-01-19T10:55:04.890Z,44
2023-01-19T10:56:04.791Z,44
2023-01-19T10:57:05.054Z,40
2023-01-19T10:58:04.866Z,44
2023-01-19T10:59:04.890Z,48
2023-01-19T11:00:05.051Z,48
2023-01-19T11:01:05.628Z,52
2023-01-19T11:02:05.962Z,56
2023-01-19T11:03:06.686Z,48
2023-01-19T11:04:05.092Z,52
2023-01-19T11:05:04.962Z,44
2023-01-19T11:06:05.171Z,44
2023-01-19T11:07:04.841Z,40
2023-01-19T11:08:05.412Z,36
2023-01-19T11:09:05.132Z,32
2023-01-19T11:10:04.869Z,32
2023-01-19T11:11:05.124Z,28
2023-01-19T11:12:04.892Z,32
2023-01-19T11:13:07.078Z,32
2023-01-19T11:14:05.365Z,32
2023-01-19T11:15:04.958Z,32
2023-01-19T11:16:05.447Z,36
2023-01-19T11:17:04.741Z,40
2023-01-19T11:18:05.070Z,44
2023-01-19T11:19:05.383Z,44
2023-01-19T11:20:05.436Z,48
2023-01-19T11:21:05.437Z,48
2023-01-19T11:22:05.385Z,48
2023-01-19T11:23:06.090Z,48
2023-01-19T11:24:05.156Z,52
2023-01-19T11:25:05.420Z,52
2023-01-19T11:26:05.404Z,52
2023-01-19T11:27:05.108Z,56
2023-01-19T11:28:05.332Z,52
2023-01-19T11:29:05.449Z,52
2023-01-19T11:30:05.432Z,48
2023-01-19T11:31:05.596Z,48
2023-01-19T11:32:05.646Z,44
2023-01-19T11:33:06.222Z,48
2023-01-19T11:34:05.203Z,48
2023-01-19T11:35:05.459Z,48
2023-01-19T11:36:05.413Z,40
2023-01-19T11:37:05.436Z,40
2023-01-19T11:38:05.530Z,36
2023-01-19T11:39:05.531Z,36
2023-01-19T11:40:05.260Z,32
2023-01-19T11:41:05.255Z,36
2023-01-19T11:42:05.534Z,40
2023-01-19T11:43:06.165Z,40
2023-01-19T11:44:05.373Z,40
2023-01-19T11:45:05.470Z,40
2023-01-19T11:46:05.872Z,40
2023-01-19T11:47:05.136Z,44
2023-01-19T11:48:06.662Z,44
2023-01-19T11:49:05.297Z,48
2023-01-19T11:50:05.734Z,48
2023-01-19T11:51:05.661Z,48
2023-01-19T11:52:05.186Z,52
2023-01-19T11:53:05.439Z,60
2023-01-19T11:54:05.441Z,56
2023-01-19T11:55:05.314Z,60
2023-01-19T11:56:05.453Z,60
2023-01-19T11:57:05.474Z,56
2023-01-19T11:58:06.389Z,60
2023-01-19T11:59:05.557Z,60
2023-01-19T12:00:05.851Z,56
2023-01-19T12:01:06.080Z,56
2023-01-19T12:02:05.954Z,56
2023-01-19T12:03:05.687Z,56
2023-01-19T12:04:06.096Z,72
2023-01-19T12:05:05.658Z,76
2023-01-19T12:06:05.837Z,72
2023-01-19T12:07:05.607Z,72
2023-01-19T12:08:10.818Z,76
2023-01-19T12:09:05.626Z,72
2023-01-19T12:10:05.632Z,72
2023-01-19T12:11:06.221Z,72
2023-01-19T12:12:05.669Z,72
2023-01-19T12:13:05.985Z,76
2023-01-19T12:14:05.956Z,72
2023-01-19T12:15:06.203Z,76
2023-01-19T12:16:06.008Z,76
2023-01-19T12:17:06.053Z,80
2023-01-19T12:18:06.837Z,92
2023-01-19T12:19:05.505Z,92
2023-01-19T12:20:05.805Z,88
2023-01-19T12:21:08.924Z,88
2023-01-19T12:22:06.086Z,96
2023-01-19T12:23:06.808Z,96
2023-01-19T12:24:06.344Z,96
2023-01-19T12:25:06.125Z,88
2023-01-19T12:26:06.160Z,80
2023-01-19T12:27:05.613Z,80
2023-01-19T12:28:06.369Z,76
2023-01-19T12:29:06.200Z,76
2023-01-19T12:30:05.635Z,72
2023-01-19T12:31:06.393Z,72
2023-01-19T12:32:06.494Z,72
2023-01-19T12:33:06.055Z,80
2023-01-19T12:34:05.965Z,80
2023-01-19T12:35:05.731Z,92
2023-01-19T12:36:06.249Z,92
2023-01-19T12:37:06.296Z,92
2023-01-19T12:38:06.302Z,92
2023-01-19T12:39:06.123Z,88
2023-01-19T12:40:06.272Z,88
2023-01-19T12:41:06.447Z,96
2023-01-19T12:42:05.860Z,108
2023-01-19T12:43:06.375Z,104
2023-01-19T12:44:06.881Z,108
2023-01-19T12:45:05.566Z,112
2023-01-19T12:46:06.572Z,128
2023-01-19T12:47:06.454Z,120
2023-01-19T12:48:06.440Z,132
2023-01-19T12:49:06.533Z,124
2023-01-19T12:50:06.424Z,132
2023-01-19T12:51:06.396Z,128
2023-01-19T12:52:06.158Z,96
2023-01-19T12:53:06.325Z,104
2023-01-19T12:54:06.857Z,112
2023-01-19T12:55:06.669Z,116
2023-01-19T12:56:06.522Z,120
2023-01-19T12:57:06.264Z,116
2023-01-19T12:58:06.285Z,124
2023-01-19T12:59:06.254Z,124
2023-01-19T13:00:06.289Z,132
2023-01-19T13:01:07.060Z,144
2023-01-19T13:02:06.542Z,148
2023-01-19T13:03:06.532Z,172
2023-01-19T13:04:07.211Z,152
2023-01-19T13:05:06.435Z,148
2023-01-19T13:06:06.368Z,160
2023-01-19T13:07:06.646Z,152
2023-01-19T13:08:06.424Z,144
2023-01-19T13:09:06.728Z,140
2023-01-19T13:10:06.420Z,144
2023-01-19T13:11:06.746Z,124
2023-01-19T13:12:08.402Z,116
2023-01-19T13:13:06.456Z,116
2023-01-19T13:14:06.712Z,116
2023-01-19T13:15:07.004Z,104
2023-01-19T13:16:06.802Z,104
2023-01-19T13:17:06.567Z,112
2023-01-19T13:18:06.765Z,116
2023-01-19T13:19:06.808Z,120
2023-01-19T13:20:06.805Z,120
2023-01-19T13:21:06.853Z,100
2023-01-19T13:22:06.584Z,100
2023-01-19T13:23:06.569Z,96
2023-01-19T13:24:06.844Z,92
2023-01-19T13:25:07.545Z,92
2023-01-19T13:26:06.874Z,88
2023-01-19T13:27:06.892Z,72
2023-01-19T13:28:06.680Z,68
2023-01-19T13:29:06.919Z,64
2023-01-19T13:30:07.809Z,64
2023-01-19T13:31:07.671Z,60
2023-01-19T13:32:06.960Z,68
2023-01-19T13:33:06.704Z,72
2023-01-19T13:34:07.000Z,68
2023-01-19T13:35:07.701Z,52
2023-01-19T13:36:06.738Z,48
2023-01-19T13:37:07.080Z,48
2023-01-19T13:38:06.563Z,48
2023-01-19T13:39:07.057Z,44
2023-01-19T13:40:07.710Z,56
2023-01-19T13:41:07.229Z,60
2023-01-19T13:42:07.093Z,60
2023-01-19T13:43:07.098Z,56
2023-01-19T13:44:07.107Z,56
2023-01-19T13:45:06.592Z,60
2023-01-19T13:46:06.913Z,68
2023-01-19T13:47:06.949Z,68
2023-01-19T13:48:06.951Z,52
2023-01-19T13:49:07.359Z,48
2023-01-19T13:50:08.152Z,52
2023-01-19T13:51:07.273Z,60
2023-01-19T13:52:07.241Z,64
2023-01-19T13:53:07.306Z,68
2023-01-19T13:54:07.286Z,60
2023-01-19T13:55:10.941Z,60
2023-01-19T13:56:07.031Z,60
2023-01-19T13:57:07.537Z,72
2023-01-19T13:58:07.065Z,68
2023-01-19T13:59:07.243Z,68
2023-01-19T14:00:07.414Z,64
2023-01-19T14:01:07.645Z,48
2023-01-19T14:02:08.080Z,44
2023-01-19T14:03:07.981Z,40
2023-01-19T14:04:07.530Z,36
2023-01-19T14:05:06.984Z,32
2023-01-19T14:06:07.568Z,32
2023-01-19T14:07:07.495Z,32
2023-01-19T14:08:07.321Z,32
2023-01-19T14:09:07.543Z,28
2023-01-19T14:10:07.907Z,28
2023-01-19T14:11:07.720Z,24
2023-01-19T14:12:07.234Z,28
2023-01-19T14:13:07.555Z,28
2023-01-19T14:14:07.274Z,28
2023-01-19T14:15:08.101Z,32
2023-01-19T14:16:07.479Z,36
2023-01-19T14:17:07.547Z,28
2023-01-19T14:18:07.776Z,28
2023-01-19T14:19:07.459Z,36
2023-01-19T14:20:07.781Z,44
2023-01-19T14:21:07.610Z,44
2023-01-19T14:22:07.603Z,36
2023-01-19T14:23:07.861Z,32
2023-01-19T14:24:07.761Z,32
2023-01-19T14:25:08.595Z,36
2023-01-19T14:26:07.872Z,40
2023-01-19T14:27:07.404Z,32
2023-01-19T14:28:07.826Z,32
2023-01-19T14:29:07.821Z,28
2023-01-19T14:30:07.842Z,28
2023-01-19T14:31:08.050Z,28
2023-01-19T14:32:07.484Z,28